createdAt,value
2018-09-27T00:00:35.819Z,10.90
2018-09-27T00:03:05.411Z,10.90
2018-09-27T00:05:35.539Z,10.80
2018-09-27T00:08:05.283Z,10.80
2018-09-27T00:10:34.992Z,10.80
2018-09-27T00:13:04.578Z,10.80
2018-09-27T00:15:34.426Z,10.80
2018-09-27T00:18:03.942Z,10.70
2018-09-27T00:20:33.429Z,10.80
2018-09-27T00:23:03.080Z,10.70
2018-09-27T00:25:33.553Z,10.60
2018-09-27T00:28:03.070Z,10.70
2018-09-27T00:30:33.388Z,10.60
2018-09-27T00:33:03.153Z,10.50
2018-09-27T00:35:34.360Z,10.50
2018-09-27T00:38:03.897Z,10.50
2018-09-27T00:40:33.472Z,10.60
2018-09-27T00:43:03.710Z,10.60
2018-09-27T00:45:33.285Z,10.50
2018-09-27T00:48:02.788Z,10.40
2018-09-27T00:50:31.813Z,10.40
2018-09-27T00:53:00.823Z,10.50
2018-09-27T00:55:29.855Z,10.50
2018-09-27T00:57:58.875Z,10.60
2018-09-27T01:00:28.515Z,10.60
2018-09-27T01:02:57.566Z,10.70
2018-09-27T01:05:26.689Z,10.70
2018-09-27T01:07:55.711Z,10.60
2018-09-27T01:10:25.619Z,10.50
2018-09-27T01:12:54.909Z,10.50
2018-09-27T01:15:23.918Z,10.50
2018-09-27T01:17:53.909Z,10.60
2018-09-27T01:20:22.995Z,10.60
2018-09-27T01:22:52.601Z,10.50
2018-09-27T01:25:21.725Z,10.40
2018-09-27T01:27:51.913Z,10.20
2018-09-27T01:30:21.049Z,10.00
2018-09-27T01:32:50.191Z,10.00
2018-09-27T01:35:19.355Z,10.00
2018-09-27T01:37:48.458Z,10.00
2018-09-27T01:40:18.445Z,9.90
2018-09-27T01:42:47.485Z,9.80
2018-09-27T01:45:16.485Z,9.80
2018-09-27T01:47:45.863Z,9.70
2018-09-27T01:50:14.959Z,9.70
2018-09-27T01:52:44.003Z,9.70
2018-09-27T01:55:13.023Z,9.70
2018-09-27T01:57:42.677Z,9.60
2018-09-27T02:00:11.721Z,9.70
2018-09-27T02:02:40.793Z,9.70
2018-09-27T02:05:09.832Z,9.70
2018-09-27T02:07:39.774Z,9.60
2018-09-27T02:10:08.916Z,9.70
2018-09-27T02:12:37.911Z,9.60
2018-09-27T02:15:07.532Z,9.60
2018-09-27T02:17:36.810Z,9.60
2018-09-27T02:20:06.263Z,9.70
2018-09-27T02:22:35.302Z,9.60
2018-09-27T02:25:05.410Z,9.50
2018-09-27T02:27:34.442Z,9.50
2018-09-27T02:30:03.506Z,9.40
2018-09-27T02:32:32.523Z,9.50
2018-09-27T02:35:02.025Z,9.50
2018-09-27T02:37:31.383Z,9.50
2018-09-27T02:40:00.387Z,9.50
2018-09-27T02:42:29.556Z,9.40
2018-09-27T02:44:58.604Z,9.30
2018-09-27T02:47:28.586Z,9.20
2018-09-27T02:49:57.644Z,9.20
2018-09-27T02:52:26.729Z,9.10
2018-09-27T02:54:55.798Z,9.20
2018-09-27T02:57:25.056Z,9.20
2018-09-27T02:59:54.094Z,9.20
2018-09-27T03:02:23.195Z,9.00
2018-09-27T03:04:52.424Z,9.00
2018-09-27T03:07:21.461Z,9.00
2018-09-27T03:09:51.441Z,9.00
2018-09-27T03:12:21.007Z,8.90
2018-09-27T03:14:50.042Z,8.80
2018-09-27T03:17:19.697Z,8.90
2018-09-27T03:19:48.716Z,9.00
2018-09-27T03:22:17.759Z,9.00
2018-09-27T03:24:46.800Z,8.90
2018-09-27T03:27:15.841Z,8.90
2018-09-27T03:29:44.857Z,8.90
2018-09-27T03:32:13.927Z,8.80
2018-09-27T03:34:42.962Z,8.90
2018-09-27T03:37:11.962Z,8.80
2018-09-27T03:39:41.004Z,8.80
2018-09-27T03:42:10.008Z,8.80
2018-09-27T03:44:39.039Z,8.80
2018-09-27T03:47:08.421Z,8.90
2018-09-27T03:49:37.452Z,8.90
2018-09-27T03:52:06.646Z,8.90
2018-09-27T03:54:35.708Z,8.80
2018-09-27T03:57:04.730Z,8.90
2018-09-27T03:59:34.338Z,8.80
2018-09-27T04:02:03.409Z,8.90
2018-09-27T04:04:32.433Z,8.90
2018-09-27T04:07:01.693Z,8.90
2018-09-27T04:09:31.176Z,8.90
2018-09-27T04:12:00.714Z,9.10
2018-09-27T04:14:29.732Z,9.20
2018-09-27T04:16:59.317Z,9.10
2018-09-27T04:19:28.596Z,9.00
2018-09-27T04:21:57.662Z,8.90
2018-09-27T04:24:27.099Z,8.90
2018-09-27T04:26:56.148Z,8.80
2018-09-27T04:29:25.163Z,8.90
2018-09-27T04:31:54.169Z,8.90
2018-09-27T04:34:23.227Z,9.00
2018-09-27T04:36:52.323Z,9.00
2018-09-27T04:39:21.314Z,9.10
2018-09-27T04:41:50.342Z,9.00
2018-09-27T04:44:19.385Z,9.00
2018-09-27T04:46:48.459Z,9.00
2018-09-27T04:49:17.501Z,9.10
2018-09-27T04:51:46.565Z,9.10
2018-09-27T04:54:15.563Z,9.20
2018-09-27T04:56:44.662Z,9.20
2018-09-27T04:59:13.622Z,9.30
2018-09-27T05:01:42.651Z,9.20
2018-09-27T05:04:11.732Z,9.10
2018-09-27T05:06:40.751Z,9.00
2018-09-27T05:09:10.109Z,9.00
2018-09-27T05:11:39.922Z,9.00
2018-09-27T05:14:08.998Z,8.90
2018-09-27T05:16:38.115Z,9.10
2018-09-27T05:19:07.196Z,9.00
2018-09-27T05:21:36.366Z,9.10
2018-09-27T05:24:05.342Z,9.10
2018-09-27T05:26:34.354Z,9.30
2018-09-27T05:29:03.360Z,9.30
2018-09-27T05:31:32.371Z,9.20
2018-09-27T05:34:01.428Z,9.20
2018-09-27T05:36:30.426Z,9.40
2018-09-27T05:38:59.452Z,9.30
2018-09-27T05:41:28.460Z,9.50
2018-09-27T05:43:57.500Z,9.40
2018-09-27T05:46:26.492Z,9.40
2018-09-27T05:48:55.516Z,9.50
2018-09-27T05:51:24.575Z,9.50
2018-09-27T05:53:53.508Z,9.30
2018-09-27T05:56:22.481Z,9.20
2018-09-27T05:58:51.488Z,9.10
2018-09-27T06:01:20.507Z,9.20
2018-09-27T06:03:49.535Z,9.40
2018-09-27T06:06:18.593Z,9.30
2018-09-27T06:08:47.605Z,9.40
2018-09-27T06:11:16.705Z,9.50
2018-09-27T06:13:45.712Z,9.60
2018-09-27T06:16:14.700Z,9.60
2018-09-27T06:18:43.744Z,9.50
2018-09-27T06:21:12.776Z,9.50
2018-09-27T06:23:42.368Z,9.50
2018-09-27T06:26:11.454Z,9.60
2018-09-27T06:28:40.397Z,9.70
2018-09-27T06:31:09.844Z,9.60
2018-09-27T06:33:38.891Z,9.60
2018-09-27T06:36:07.846Z,9.60
2018-09-27T06:38:36.901Z,9.60
2018-09-27T06:41:05.928Z,9.70
2018-09-27T06:43:34.971Z,9.60
2018-09-27T06:46:03.974Z,9.60
2018-09-27T06:48:33.036Z,9.60
2018-09-27T06:51:02.028Z,9.70
2018-09-27T06:53:31.044Z,9.80
2018-09-27T06:56:00.127Z,9.70
2018-09-27T06:58:29.064Z,9.70
2018-09-27T07:00:58.218Z,9.70
2018-09-27T07:03:27.182Z,9.80
2018-09-27T07:05:56.213Z,9.90
2018-09-27T07:08:25.304Z,10.00
2018-09-27T07:10:54.300Z,10.10
2018-09-27T07:13:23.344Z,10.00
2018-09-27T07:15:52.358Z,10.00
2018-09-27T07:18:21.390Z,10.10
2018-09-27T07:20:50.427Z,10.10
2018-09-27T07:23:19.420Z,10.00
2018-09-27T07:25:48.706Z,10.00
2018-09-27T07:28:17.709Z,10.20
2018-09-27T07:30:46.728Z,10.20
2018-09-27T07:33:15.730Z,10.00
2018-09-27T07:35:44.865Z,10.00
2018-09-27T07:38:13.911Z,10.20
2018-09-27T07:40:42.916Z,10.30
2018-09-27T07:43:12.000Z,10.30
2018-09-27T07:45:40.987Z,10.50
2018-09-27T07:48:10.048Z,10.30
2018-09-27T07:50:39.100Z,10.50
2018-09-27T07:53:08.142Z,10.60
2018-09-27T07:55:37.220Z,10.60
2018-09-27T07:58:06.534Z,10.80
2018-09-27T08:00:35.564Z,10.90
2018-09-27T08:03:04.699Z,11.00
2018-09-27T08:05:33.648Z,10.90
2018-09-27T08:08:02.658Z,11.00
2018-09-27T08:10:31.680Z,11.10
2018-09-27T08:13:00.671Z,11.00
2018-09-27T08:15:29.688Z,11.10
2018-09-27T08:17:58.789Z,11.00
2018-09-27T08:20:27.970Z,11.10
2018-09-27T08:22:56.886Z,11.10
2018-09-27T08:25:25.946Z,11.20
2018-09-27T08:27:55.555Z,11.30
2018-09-27T08:30:24.627Z,11.30
2018-09-27T08:32:53.658Z,11.40
2018-09-27T08:35:22.673Z,11.60
2018-09-27T08:37:51.685Z,11.70
2018-09-27T08:40:20.763Z,11.90
2018-09-27T08:42:49.812Z,12.00
2018-09-27T08:45:19.136Z,12.10
2018-09-27T08:47:47.996Z,12.20
2018-09-27T08:50:17.315Z,12.30
2018-09-27T08:52:46.403Z,12.30
2018-09-27T08:55:15.636Z,12.40
2018-09-27T08:57:45.019Z,12.60
2018-09-27T09:00:14.160Z,12.80
2018-09-27T09:02:43.265Z,12.90
2018-09-27T09:05:12.412Z,13.00
2018-09-27T09:07:41.591Z,12.90
2018-09-27T09:10:10.326Z,13.00
2018-09-27T09:12:39.428Z,13.10
2018-09-27T09:15:08.579Z,13.20
2018-09-27T09:17:37.906Z,13.20
2018-09-27T09:20:07.473Z,13.50
2018-09-27T09:22:36.584Z,13.70
2018-09-27T09:25:05.722Z,13.80
2018-09-27T09:27:34.883Z,14.00
2018-09-27T09:30:04.088Z,14.20
2018-09-27T09:32:33.136Z,14.40
2018-09-27T09:35:02.283Z,14.70
2018-09-27T09:37:31.407Z,14.80
2018-09-27T09:40:00.474Z,14.90
2018-09-27T09:42:29.574Z,15.00
2018-09-27T09:44:58.712Z,15.30
2018-09-27T09:47:27.898Z,15.20
2018-09-27T09:49:57.005Z,15.20
2018-09-27T09:52:26.052Z,15.60
2018-09-27T09:54:55.172Z,15.90
2018-09-27T09:57:24.262Z,16.30
2018-09-27T09:59:53.344Z,16.60
2018-09-27T10:02:22.444Z,16.80
2018-09-27T10:04:51.528Z,17.00
2018-09-27T10:07:20.608Z,17.20
2018-09-27T10:09:49.694Z,17.40
2018-09-27T10:12:18.782Z,17.80
2018-09-27T10:14:47.880Z,18.00
2018-09-27T10:17:16.973Z,18.40
2018-09-27T10:19:46.100Z,18.30
2018-09-27T10:22:15.159Z,18.20
2018-09-27T10:24:44.216Z,18.30
2018-09-27T10:27:13.362Z,18.50
2018-09-27T10:29:42.426Z,19.00
2018-09-27T10:32:11.766Z,19.50
2018-09-27T10:34:40.925Z,19.90
2018-09-27T10:37:09.930Z,20.20
2018-09-27T10:39:39.011Z,20.20
2018-09-27T10:42:08.083Z,20.30
2018-09-27T10:44:37.160Z,20.30
2018-09-27T10:47:06.668Z,20.10
2018-09-27T10:49:35.758Z,20.10
2018-09-27T10:52:04.856Z,20.50
2018-09-27T10:54:33.934Z,21.00
2018-09-27T10:57:03.046Z,21.80
2018-09-27T10:59:32.185Z,23.10
2018-09-27T11:02:01.213Z,24.00
2018-09-27T11:04:30.382Z,24.10
2018-09-27T11:06:59.478Z,24.90
2018-09-27T11:09:28.531Z,25.40
2018-09-27T11:11:57.646Z,26.10
2018-09-27T11:14:26.740Z,26.40
2018-09-27T11:16:55.828Z,27.20
2018-09-27T11:19:24.902Z,27.70
2018-09-27T11:21:53.984Z,28.20
2018-09-27T11:24:23.059Z,28.30
2018-09-27T11:26:52.143Z,27.90
2018-09-27T11:29:26.615Z,28.10
2018-09-27T11:32:01.037Z,27.90
2018-09-27T11:34:30.429Z,28.10
2018-09-27T11:36:59.495Z,28.50
2018-09-27T11:39:28.663Z,28.70
2018-09-27T11:41:57.743Z,28.90
2018-09-27T11:44:26.958Z,28.10
2018-09-27T11:46:56.064Z,27.60
2018-09-27T11:49:25.317Z,28.30
2018-09-27T11:51:54.226Z,29.70
2018-09-27T11:54:23.368Z,29.70
2018-09-27T11:56:52.488Z,30.60
2018-09-27T11:59:21.549Z,31.20
2018-09-27T12:01:51.271Z,30.80
2018-09-27T12:04:21.295Z,30.20
2018-09-27T12:06:50.418Z,30.40
2018-09-27T12:09:19.601Z,30.70
2018-09-27T12:11:48.707Z,30.20
2018-09-27T12:14:17.881Z,30.60
2018-09-27T12:16:47.025Z,31.00
2018-09-27T12:19:16.107Z,30.20
2018-09-27T12:21:45.189Z,30.50
2018-09-27T12:24:14.278Z,29.70
2018-09-27T12:26:43.497Z,29.20
2018-09-27T12:29:12.719Z,29.70
2018-09-27T12:31:41.893Z,30.20
2018-09-27T12:34:11.140Z,30.50
2018-09-27T12:36:41.023Z,31.00
2018-09-27T12:39:12.263Z,30.30
2018-09-27T12:41:41.555Z,30.60
2018-09-27T12:44:10.591Z,31.20
2018-09-27T12:46:39.828Z,31.80
2018-09-27T12:49:08.797Z,31.40
2018-09-27T12:51:37.983Z,30.90
2018-09-27T12:54:07.445Z,30.60
2018-09-27T12:56:37.351Z,30.70
2018-09-27T12:59:06.745Z,30.50
2018-09-27T13:01:36.516Z,30.30
2018-09-27T13:04:05.614Z,30.80
2018-09-27T13:06:35.525Z,30.50
2018-09-27T13:09:07.175Z,30.70
2018-09-27T13:11:40.641Z,29.90
2018-09-27T13:14:05.287Z,30.10
2018-09-27T13:16:34.380Z,30.30
2018-09-27T13:19:03.519Z,30.30
2018-09-27T13:21:32.586Z,30.40
2018-09-27T13:24:01.675Z,31.00
2018-09-27T13:26:30.786Z,32.00
2018-09-27T13:28:59.910Z,32.60
2018-09-27T13:31:29.116Z,32.40
2018-09-27T13:33:58.311Z,33.00
2018-09-27T13:36:27.437Z,33.20
2018-09-27T13:38:56.646Z,33.10
2018-09-27T13:41:25.704Z,33.70
2018-09-27T13:43:54.775Z,33.50
2018-09-27T13:46:23.830Z,33.90
2018-09-27T13:48:52.944Z,33.70
2018-09-27T13:51:21.981Z,34.40
2018-09-27T13:53:51.577Z,33.80
2018-09-27T13:56:20.670Z,34.00
2018-09-27T13:58:49.725Z,34.30
2018-09-27T14:01:18.812Z,33.00
2018-09-27T14:03:47.869Z,32.80
2018-09-27T14:06:16.966Z,33.40
2018-09-27T14:08:46.027Z,33.00
2018-09-27T14:11:15.153Z,33.80
2018-09-27T14:13:44.211Z,33.90
2018-09-27T14:16:13.278Z,34.30
2018-09-27T14:18:42.388Z,34.80
2018-09-27T14:21:11.464Z,34.50
2018-09-27T14:23:40.551Z,34.80
2018-09-27T14:26:09.694Z,34.30
2018-09-27T14:28:38.774Z,33.90
2018-09-27T14:31:08.080Z,33.40
2018-09-27T14:33:37.190Z,33.20
2018-09-27T14:36:06.393Z,33.60
2018-09-27T14:38:35.467Z,33.30
2018-09-27T14:41:04.752Z,33.10
2018-09-27T14:43:33.791Z,33.00
2018-09-27T14:46:02.869Z,32.90
2018-09-27T14:48:31.953Z,32.70
2018-09-27T14:51:01.019Z,32.50
2018-09-27T14:53:30.113Z,32.80
2018-09-27T14:55:59.201Z,33.10
2018-09-27T14:58:28.330Z,32.80
2018-09-27T15:00:57.347Z,32.60
2018-09-27T15:03:27.150Z,32.70
2018-09-27T15:05:56.215Z,32.20
2018-09-27T15:08:25.301Z,31.80
2018-09-27T15:10:54.458Z,31.90
2018-09-27T15:13:23.438Z,31.80
2018-09-27T15:15:52.505Z,31.70
2018-09-27T15:18:21.585Z,31.40
2018-09-27T15:20:50.636Z,31.60
2018-09-27T15:23:19.704Z,31.80
2018-09-27T15:25:48.783Z,31.40
2018-09-27T15:28:17.867Z,31.10
2018-09-27T15:30:46.980Z,31.60
2018-09-27T15:33:15.994Z,31.30
2018-09-27T15:35:45.084Z,31.00
2018-09-27T15:38:14.187Z,30.90
2018-09-27T15:40:43.280Z,31.40
2018-09-27T15:43:12.720Z,31.90
2018-09-27T15:45:41.908Z,31.30
2018-09-27T15:48:10.970Z,30.90
2018-09-27T15:50:40.044Z,30.60
2018-09-27T15:53:09.096Z,31.10
2018-09-27T15:55:38.210Z,31.30
2018-09-27T15:58:07.308Z,31.50
2018-09-27T16:00:36.403Z,31.10
2018-09-27T16:03:06.190Z,30.90
2018-09-27T16:05:35.301Z,30.90
2018-09-27T16:08:04.357Z,30.80
2018-09-27T16:10:33.425Z,30.70
2018-09-27T16:13:02.522Z,30.60
2018-09-27T16:15:31.599Z,30.70
2018-09-27T16:18:00.700Z,30.60
2018-09-27T16:20:29.810Z,30.70
2018-09-27T16:22:58.878Z,30.70
2018-09-27T16:25:27.976Z,30.50
2018-09-27T16:27:57.087Z,30.90
2018-09-27T16:30:26.175Z,31.50
2018-09-27T16:32:55.257Z,32.40
2018-09-27T16:35:24.435Z,32.50
2018-09-27T16:37:53.810Z,32.50
2018-09-27T16:40:22.975Z,32.90
2018-09-27T16:42:52.098Z,33.00
2018-09-27T16:45:21.352Z,32.50
2018-09-27T16:47:50.448Z,32.10
2018-09-27T16:50:19.569Z,32.00
2018-09-27T16:52:48.672Z,31.40
2018-09-27T16:55:17.854Z,30.70
2018-09-27T16:57:46.936Z,30.10
2018-09-27T17:00:16.018Z,29.80
2018-09-27T17:02:45.074Z,29.40
2018-09-27T17:05:14.197Z,28.60
2018-09-27T17:07:43.276Z,27.70
2018-09-27T17:10:12.453Z,26.50
2018-09-27T17:12:41.585Z,25.60
2018-09-27T17:15:10.633Z,25.00
2018-09-27T17:17:39.813Z,24.30
2018-09-27T17:20:08.866Z,23.70
2018-09-27T17:22:37.994Z,23.40
2018-09-27T17:25:06.990Z,23.10
2018-09-27T17:27:36.081Z,22.80
2018-09-27T17:30:05.764Z,22.50
2018-09-27T17:32:34.908Z,22.30
2018-09-27T17:35:04.066Z,22.10
2018-09-27T17:37:33.371Z,22.00
2018-09-27T17:40:02.391Z,21.80
2018-09-27T17:42:31.491Z,21.70
2018-09-27T17:45:00.578Z,21.50
2018-09-27T17:47:30.042Z,21.30
2018-09-27T17:49:59.122Z,21.00
2018-09-27T17:52:28.248Z,20.80
2018-09-27T17:54:57.326Z,20.70
2018-09-27T17:57:26.425Z,20.60
2018-09-27T17:59:55.888Z,20.30
2018-09-27T18:02:25.267Z,20.30
2018-09-27T18:04:54.364Z,20.20
2018-09-27T18:07:23.443Z,20.10
2018-09-27T18:09:52.754Z,20.00
2018-09-27T18:12:21.828Z,19.90
2018-09-27T18:14:50.898Z,19.80
2018-09-27T18:17:20.003Z,19.90
2018-09-27T18:19:49.236Z,19.70
2018-09-27T18:22:18.405Z,19.60
2018-09-27T18:24:47.485Z,19.30
2018-09-27T18:27:16.623Z,19.20
2018-09-27T18:29:45.762Z,18.90
2018-09-27T18:32:14.906Z,18.80
2018-09-27T18:34:44.109Z,18.70
2018-09-27T18:37:13.169Z,18.80
2018-09-27T18:39:42.203Z,18.80
2018-09-27T18:42:11.458Z,18.60
2018-09-27T18:44:40.581Z,18.50
2018-09-27T18:47:09.685Z,18.40
2018-09-27T18:49:39.158Z,18.20
2018-09-27T18:52:08.298Z,18.20
2018-09-27T18:54:37.425Z,18.30
2018-09-27T18:57:06.584Z,18.20
2018-09-27T18:59:35.721Z,18.20
2018-09-27T19:02:04.899Z,18.20
2018-09-27T19:04:33.984Z,18.30
2018-09-27T19:07:03.079Z,18.40
2018-09-27T19:09:32.181Z,18.40
2018-09-27T19:12:01.246Z,18.40
2018-09-27T19:14:30.329Z,18.30
2018-09-27T19:16:59.819Z,18.30
2018-09-27T19:19:28.899Z,18.30
2018-09-27T19:21:58.034Z,17.90
2018-09-27T19:24:27.079Z,18.00
2018-09-27T19:26:56.184Z,18.00
2018-09-27T19:29:25.286Z,18.00
2018-09-27T19:31:54.376Z,17.90
2018-09-27T19:34:23.515Z,17.70
2018-09-27T19:36:52.590Z,17.70
2018-09-27T19:39:21.771Z,17.70
2018-09-27T19:41:50.861Z,17.60
2018-09-27T19:44:20.508Z,17.50
2018-09-27T19:46:49.600Z,17.60
2018-09-27T19:49:18.656Z,17.50
2018-09-27T19:51:48.269Z,17.30
2018-09-27T19:54:17.425Z,17.00
2018-09-27T19:56:46.492Z,17.00
2018-09-27T19:59:15.610Z,17.00
2018-09-27T20:01:44.699Z,17.00
2018-09-27T20:04:14.514Z,16.90
2018-09-27T20:06:43.585Z,16.80
2018-09-27T20:09:13.771Z,16.90
2018-09-27T20:11:43.464Z,16.70
2018-09-27T20:14:12.820Z,16.60
2018-09-27T20:16:42.234Z,16.60
2018-09-27T20:19:11.308Z,16.60
2018-09-27T20:21:40.464Z,16.60
2018-09-27T20:24:09.594Z,16.60
2018-09-27T20:26:38.661Z,16.50
2018-09-27T20:29:07.795Z,16.50
2018-09-27T20:31:37.001Z,16.50
2018-09-27T20:34:06.132Z,16.50
2018-09-27T20:36:35.160Z,16.50
2018-09-27T20:39:07.513Z,16.60
2018-09-27T20:41:38.306Z,16.50
2018-09-27T20:44:08.292Z,16.50
2018-09-27T20:46:37.377Z,16.40
2018-09-27T20:49:06.482Z,16.40
2018-09-27T20:51:35.590Z,16.30
2018-09-27T20:54:04.815Z,16.20
2018-09-27T20:56:33.889Z,16.10
2018-09-27T20:59:03.049Z,16.20
2018-09-27T21:01:32.115Z,16.10
2018-09-27T21:04:02.151Z,16.00
2018-09-27T21:06:31.245Z,15.90
2018-09-27T21:09:00.391Z,16.00
2018-09-27T21:11:29.785Z,15.90
2018-09-27T21:13:58.866Z,16.00
2018-09-27T21:16:27.978Z,15.70
2018-09-27T21:18:57.709Z,15.40
2018-09-27T21:21:26.777Z,15.40
2018-09-27T21:23:55.877Z,15.20
2018-09-27T21:26:25.065Z,15.20
2018-09-27T21:28:54.249Z,15.30
2018-09-27T21:31:23.391Z,15.30
2018-09-27T21:33:53.345Z,15.20
2018-09-27T21:36:22.431Z,15.20
2018-09-27T21:38:51.557Z,15.20
2018-09-27T21:41:20.713Z,15.30
2018-09-27T21:43:50.102Z,15.00
2018-09-27T21:46:19.403Z,14.70
2018-09-27T21:48:48.837Z,14.70
2018-09-27T21:51:17.927Z,14.70
2018-09-27T21:53:47.040Z,14.60
2018-09-27T21:56:16.254Z,14.80
2018-09-27T21:58:45.364Z,14.80
2018-09-27T22:01:14.466Z,15.00
2018-09-27T22:03:44.080Z,15.00
2018-09-27T22:06:13.149Z,15.00
2018-09-27T22:08:42.273Z,15.00
2018-09-27T22:11:11.574Z,14.70
2018-09-27T22:13:41.024Z,14.80
2018-09-27T22:16:10.190Z,14.70
2018-09-27T22:18:39.298Z,14.60
2018-09-27T22:21:09.370Z,14.60
2018-09-27T22:23:38.490Z,14.70
2018-09-27T22:26:07.584Z,14.60
2018-09-27T22:28:36.678Z,14.60
2018-09-27T22:31:06.368Z,14.50
2018-09-27T22:33:35.498Z,14.60
2018-09-27T22:36:04.760Z,14.60
2018-09-27T22:38:33.868Z,14.60
2018-09-27T22:41:02.958Z,14.60
2018-09-27T22:43:32.052Z,14.70
2018-09-27T22:46:01.126Z,14.60
2018-09-27T22:48:30.254Z,14.30
2018-09-27T22:50:59.312Z,14.40
2018-09-27T22:53:28.397Z,14.40
2018-09-27T22:55:57.494Z,14.40
2018-09-27T22:58:26.768Z,14.50
2018-09-27T23:00:55.830Z,14.50
2018-09-27T23:03:24.944Z,14.40
2018-09-27T23:05:54.004Z,14.40
2018-09-27T23:08:23.096Z,14.30
2018-09-27T23:10:52.766Z,14.40
2018-09-27T23:13:21.846Z,14.20
2018-09-27T23:15:50.952Z,14.10
2018-09-27T23:18:20.039Z,13.90
2018-09-27T23:20:49.124Z,13.90
2018-09-27T23:23:18.184Z,13.80
2018-09-27T23:25:47.283Z,14.00
2018-09-27T23:28:16.348Z,14.00
2018-09-27T23:30:45.586Z,14.10
2018-09-27T23:33:14.695Z,14.20
2018-09-27T23:35:43.794Z,14.20
2018-09-27T23:38:12.888Z,14.20
2018-09-27T23:40:41.994Z,14.20
2018-09-27T23:43:12.002Z,14.10
2018-09-27T23:45:41.062Z,14.10
2018-09-27T23:48:10.252Z,14.00
2018-09-27T23:50:39.322Z,14.00
2018-09-27T23:53:08.409Z,13.80
2018-09-27T23:55:37.508Z,13.90
2018-09-27T23:58:06.635Z,13.90
